Latest Weather Observations for Centre Island

IDD60801

Issued at 3:01 pm CST Friday 24 February 2017 (issued every 30 minutes, with the page automatically refreshed every 10 minutes)

About weather observations | Map of weather stations | Latest weather observations for NT | Other Formats
Station Details ID: 014703 Name: CENTRE ISLAND Lat: -15.74 Lon: 136.82 Height: 12.2 m
Data from the previous 72 hours. | See also: Recent months at Centre Island
Date/Time
CST
Temp
°C
App
Temp
°C
Dew
Point
°C
Rel
Hum
%
Delta-T
°C
Wind Press
QNH
hPa
Press
MSL
hPa
Rain since
9am
mm
Dir  Spd
km/h
Gust
km/h
Spd
kts
Gust
kts
24/03:00pm 32.2 36.8 24.8 65 5.2 ENE 9 11 5 6 1010.1 1010.0 0.0
24/02:30pm 31.7 36.7 24.8 67 4.9 ESE 7 9 4 5 1010.1 1010.0 0.0
24/02:00pm 31.9 36.8 25.2 67 4.7 SE 9 13 5 7 1010.3 1010.2 0.0
24/01:30pm 31.2 35.1 24.8 69 4.5 SE 13 15 7 8 1010.5 1010.4 0.0
24/01:00pm 32.0 36.4 26.3 72 4.1 SE 15 17 8 9 1011.3 1011.2 0.0
24/12:30pm 31.2 34.9 25.8 73 3.8 SE 17 19 9 10 1012.1 1012.0 0.0
24/12:00pm 30.9 34.1 25.5 73 3.8 SE 19 22 10 12 1012.6 1012.5 0.0
24/11:30am 30.6 34.8 25.9 76 3.3 SE 15 17 8 9 1013.2 1013.1 0.0
24/11:00am 29.9 35.3 25.4 77 3.2 SSE 7 11 4 6 1013.5 1013.4 0.0
24/10:30am 29.9 34.8 25.9 79 2.8 SE 11 13 6 7 1013.6 1013.5 0.0
24/10:00am 29.2 33.9 25.6 81 2.5 ESE 11 13 6 7 1013.4 1013.3 0.0
24/09:30am 28.9 34.2 25.9 84 2.1 ESE 9 11 5 6 1013.5 1013.4 0.0
24/09:00am 28.6 33.0 25.6 84 2.1 ESE 13 15 7 8 1013.2 1013.1 0.0
24/08:30am 27.6 31.0 25.8 90 1.3 ESE 19 22 10 12 1013.2 1013.1 0.0
24/08:00am 27.0 30.3 26.0 94 0.7 SE 20 24 11 13 1013.0 1012.9 0.0
24/07:30am 26.8 29.7 25.9 95 0.6 SE 22 24 12 13 1012.7 1012.6 0.0
24/07:00am 26.9 29.8 26.0 95 0.6 ESE 22 24 12 13 1012.4 1012.3 0.0
24/06:30am 26.8 30.3 26.3 97 0.4 ESE 20 24 11 13 1012.2 1012.1 0.0
24/06:00am 26.9 30.1 26.4 97 0.4 ESE 22 24 12 13 1011.5 1011.4 0.0
24/05:30am 26.9 30.4 26.0 95 0.6 ESE 19 24 10 13 1011.0 1010.9 0.0
24/05:00am 26.9 30.2 25.7 93 0.8 E 19 24 10 13 1010.7 1010.6 0.0
24/04:30am 27.0 30.2 25.8 93 0.8 E 20 24 11 13 1010.7 1010.6 0.0
24/04:00am 27.0 30.4 25.8 93 0.8 E 19 22 10 12 1010.6 1010.5 0.0
24/03:30am 27.1 30.5 25.9 93 0.8 E 19 22 10 12 1010.5 1010.4 0.0
24/03:00am 27.1 30.5 25.9 93 0.8 E 19 22 10 12 1010.6 1010.5 0.0
24/02:30am 27.2 30.4 25.8 92 1.0 E 20 24 11 13 1010.6 1010.5 0.0
24/02:00am 27.2 30.7 26.0 93 0.8 E 19 20 10 11 1010.9 1010.8 0.0
24/01:30am 27.3 31.1 25.9 92 1.0 E 17 19 9 10 1011.1 1011.0 0.0
24/01:00am 27.4 31.1 25.8 91 1.1 E 17 20 9 11 1011.1 1011.0 0.0
24/12:30am 27.5 31.3 25.9 91 1.1 E 17 19 9 10 1011.1 1011.0 0.0
24/12:00am 27.6 31.7 26.4 93 0.9 E 17 19 9 10 1011.2 1011.1 0.0
 
Date/Time
CST
Temp
°C
App
Temp
°C
Dew
Point
°C
Rel
Hum
%
Delta-T
°C
Wind Press
QNH
hPa
Press
MSL
hPa
Rain since
9am
mm
Dir  Spd
km/h
Gust
km/h
Spd
kts
Gust
kts
23/11:30pm 27.6 32.2 26.5 94 0.8 E 15 17 8 9 1011.4 1011.3 0.0
23/11:00pm 27.6 31.4 26.4 93 0.9 E 19 20 10 11 1011.3 1011.2 0.0
23/10:30pm 27.8 31.4 26.4 92 1.0 ESE 20 22 11 12 1011.3 1011.2 0.0
23/10:00pm 27.8 31.3 26.0 90 1.3 ESE 19 22 10 12 1011.1 1011.0 0.0
23/09:30pm 27.9 31.6 25.7 88 1.6 E 17 20 9 11 1010.6 1010.5 0.0
23/09:00pm 28.0 32.2 26.0 89 1.4 E 15 17 8 9 1010.2 1010.1 0.0
23/08:30pm 28.1 32.3 25.9 88 1.6 E 15 17 8 9 1009.6 1009.5 0.0
23/08:00pm 28.2 31.9 25.8 87 1.7 ENE 17 20 9 11 1009.3 1009.2 0.0
23/07:30pm 28.2 31.6 25.8 87 1.7 NE 19 24 10 13 1009.1 1009.0 0.0
23/07:00pm 28.4 32.5 25.8 86 1.8 NE 15 19 8 10 1008.8 1008.7 0.0
23/06:30pm 28.6 32.1 25.4 83 2.3 NE 17 20 9 11 1008.6 1008.5 0.0
23/06:00pm 29.0 33.0 25.6 82 2.4 NE 15 19 8 10 1008.3 1008.2 0.0
23/05:30pm 29.5 33.9 25.7 80 2.7 NE 13 17 7 9 1008.0 1007.9 0.0
23/05:00pm 29.7 33.9 25.4 78 3.0 NE 13 15 7 8 1008.0 1007.9 0.0
23/04:30pm 29.5 33.4 25.5 79 2.8 ESE 15 17 8 9 1007.9 1007.8 0.0
23/04:00pm 29.6 33.1 25.4 78 3.0 ESE 17 20 9 11 1007.8 1007.7 0.0
23/03:30pm 29.4 33.3 25.4 79 2.8 E 15 19 8 10 1007.9 1007.8 0.0
23/03:00pm 29.6 32.8 25.8 80 2.7 ESE 20 24 11 13 1007.9 1007.8 0.0
23/02:30pm 30.1 32.3 26.1 79 2.9 ESE 26 32 14 17 1007.9 1007.8 0.0
23/02:00pm 30.1 32.0 25.6 77 3.2 ESE 26 32 14 17 1008.2 1008.1 0.0
23/01:30pm 30.5 33.9 25.3 74 3.7 ESE 17 20 9 11 1008.5 1008.4 0.0
23/01:00pm 30.0 32.7 25.1 75 3.4 ESE 20 24 11 13 1008.8 1008.7 0.0
23/12:30pm 29.9 33.4 25.4 77 3.2 SE 17 19 9 10 1009.0 1008.9 0.0
23/12:00pm 29.6 32.8 25.8 80 2.7 ESE 20 24 11 13 1009.6 1009.5 0.0
23/11:30am 28.7 30.9 24.9 80 2.7 ESE 22 26 12 14 1009.7 1009.6 0.0
23/11:00am 28.8 31.7 25.4 82 2.4 SE 20 24 11 13 1009.9 1009.8 0.0
23/10:30am 28.2 30.9 24.8 82 2.4 ESE 19 20 10 11 1010.1 1010.0 0.0
23/10:00am 28.1 31.3 24.9 83 2.2 ESE 17 19 9 10 1010.4 1010.3 0.0
23/09:30am 27.9 30.8 25.1 85 2.0 SE 19 22 10 12 1010.6 1010.5 0.0
23/09:00am 27.0 30.2 25.0 89 1.4 SE 17 20 9 11 1010.5 1010.4 0.0
23/08:30am 26.6 29.7 24.8 90 1.3 SSE 17 19 9 10 1010.0 1009.9 0.0
23/08:00am 26.3 30.2 24.9 92 1.0 S 13 17 7 9 1009.5 1009.4 0.0
23/07:30am 26.3 28.9 24.9 92 1.0 SSE 20 20 11 11 1009.3 1009.2 0.0
23/07:00am 26.3 29.0 25.1 93 0.8 SSE 20 22 11 12 1008.9 1008.8 0.0
23/06:30am 26.3 29.4 25.4 95 0.6 SSE 19 20 10 11 1008.4 1008.3 0.0
23/06:00am 26.5 31.5 26.0 97 0.4 S 11 13 6 7 1008.1 1008.0 0.0
23/05:30am 26.5 32.1 25.8 96 0.5 S 7 9 4 5 1007.9 1007.8 0.0
23/05:00am 26.7 33.9 26.2 97 0.4 CALM 0 0 0 0 1007.5 1007.4 0.0
23/04:30am 26.4 33.1 25.4 94 0.7 CALM 0 0 0 0 1007.2 1007.1 0.0
23/04:00am 26.5 33.3 25.6 95 0.6 CALM 0 4 0 2 1006.8 1006.7 0.0
23/03:30am 26.7 32.3 25.7 94 0.7 NNE 7 9 4 5 1006.5 1006.4 0.0
23/03:00am 26.6 32.5 25.4 93 0.8 NNE 4 7 2 4 1006.7 1006.6 0.0
23/02:30am 26.7 33.3 25.3 92 1.0 CALM 0 0 0 0 1007.0 1006.9 0.0
23/02:00am 26.8 33.4 25.2 91 1.1 CALM 0 4 0 2 1007.4 1007.3 0.0
23/01:30am 26.8 32.6 25.2 91 1.1 E 4 9 2 5 1007.8 1007.7 0.0
23/01:00am 26.7 32.1 25.1 91 1.1 NE 6 6 3 3 1008.0 1007.9 0.0
23/12:30am 27.0 33.7 25.4 91 1.1 CALM 0 4 0 2 1008.5 1008.4 0.0
23/12:00am 27.4 33.2 25.2 88 1.5 S 4 9 2 5 1009.0 1008.9 0.0
 
Date/Time
CST
Temp
°C
App
Temp
°C
Dew
Point
°C
Rel
Hum
%
Delta-T
°C
Wind Press
QNH
hPa
Press
MSL
hPa
Rain since
9am
mm
Dir  Spd
km/h
Gust
km/h
Spd
kts
Gust
kts
22/11:30pm 27.8 33.1 25.2 86 1.8 W 7 9 4 5 1009.0 1008.9 0.0
22/11:00pm 27.8 30.6 25.2 86 1.8 SSW 20 28 11 15 1009.5 1009.4 0.0
22/10:30pm 27.7 32.1 24.5 83 2.2 NW 9 13 5 7 1008.9 1008.8 0.0
22/10:00pm 27.6 31.3 24.6 84 2.1 NNW 13 17 7 9 1008.8 1008.7 0.0
22/09:30pm 27.6 31.5 25.4 88 1.5 NNW 15 19 8 10 1008.4 1008.3 0.0
22/09:00pm 27.8 31.0 25.0 85 2.0 NNW 17 22 9 12 1008.3 1008.2 0.0
22/08:30pm 27.8 31.0 25.0 85 2.0 NW 17 22 9 12 1008.0 1007.9 0.0
22/08:00pm 27.9 30.7 24.9 84 2.1 NNW 19 26 10 14 1007.6 1007.5 0.0
22/07:30pm 28.0 30.8 25.0 84 2.1 NNW 19 26 10 14 1007.3 1007.2 0.0
22/07:00pm 28.3 31.1 24.9 82 2.4 NNW 19 26 10 14 1006.9 1006.8 0.0
22/06:30pm 29.5 32.6 24.8 76 3.3 NNW 17 22 9 12 1006.6 1006.5 0.0
22/06:00pm 31.8 34.9 24.1 63 5.4 W 15 20 8 11 1006.2 1006.1 0.0
22/05:30pm 32.2 34.8 24.0 62 5.7 W 17 20 9 11 1005.8 1005.7 0.0
22/05:00pm 32.3 35.2 23.8 61 5.9 W 15 19 8 10 1005.7 1005.6 0.0
22/04:30pm 31.6 34.4 23.7 63 5.5 W 15 17 8 9 1005.8 1005.7 0.0
22/04:00pm 31.7 34.7 24.0 63 5.4 WSW 15 17 8 9 1006.0 1005.9 0.0
22/03:30pm 32.2 36.6 24.5 64 5.4 W 9 17 5 9 1006.0 1005.9 0.0
22/03:00pm 31.2 35.2 23.8 64 5.1 W 9 11 5 6 1006.1 1006.0 0.0
22/02:30pm 30.3 34.1 24.0 69 4.4 WSW 11 15 6 8 1006.4 1006.3 0.0
22/02:00pm 31.2 35.4 24.8 69 4.5 WSW 11 15 6 8 1006.9 1006.8 0.0
22/01:30pm 30.9 34.8 24.3 68 4.6 WSW 11 15 6 8 1007.3 1007.2 0.0
22/01:00pm 29.1 33.5 23.8 73 3.7 SSE 7 9 4 5 1007.8 1007.7 0.0
22/12:30pm 29.4 33.3 23.6 71 4.0 W 9 11 5 6 1008.0 1007.9 0.0
22/12:00pm 29.2 32.1 23.9 73 3.7 WSW 15 17 8 9 1008.5 1008.4 0.0
22/11:30am 28.6 30.8 23.9 75 3.3 W 19 20 10 11 1008.6 1008.5 0.0
22/11:00am 28.8 31.7 23.9 75 3.4 WSW 15 19 8 10 1009.0 1008.9 0.0
22/10:30am 28.5 31.1 23.9 76 3.2 SW 17 24 9 13 1009.0 1008.9 0.0
22/10:00am 27.9 30.7 23.7 78 2.9 WSW 15 19 8 10 1009.1 1009.0 0.0
22/09:30am 27.3 29.7 23.7 81 2.5 WSW 17 20 9 11 1009.3 1009.2 0.0
22/09:00am 27.1 30.0 23.8 82 2.3 SW 15 22 8 12 1009.3 1009.2 12.6
22/08:30am 26.4 29.3 23.9 86 1.7 WSW 15 22 8 12 1009.3 1009.2 12.6
22/08:00am 26.2 29.1 23.9 87 1.6 SW 15 20 8 11 1008.9 1008.8 12.6
22/07:30am 25.4 27.7 23.5 89 1.3 SW 17 20 9 11 1008.5 1008.4 12.6
22/07:00am 25.0 27.5 23.8 93 0.8 WSW 17 20 9 11 1008.1 1008.0 12.6
22/06:30am 24.9 27.1 23.9 94 0.7 WSW 19 20 10 11 1007.9 1007.8 12.6
22/06:00am 24.8 26.7 23.8 94 0.7 WSW 20 22 11 12 1007.6 1007.5 12.6
22/05:30am 24.9 27.5 23.9 94 0.7 WSW 17 20 9 11 1007.3 1007.2 12.6
22/05:00am 24.9 27.3 23.7 93 0.8 WSW 17 19 9 10 1007.0 1006.9 12.6
22/04:30am 24.8 27.7 23.8 94 0.7 WSW 15 17 8 9 1006.7 1006.6 12.6
22/04:00am 24.9 27.8 23.9 94 0.7 WSW 15 19 8 10 1006.3 1006.2 12.6
22/03:30am 24.9 27.8 23.9 94 0.7 WSW 15 19 8 10 1006.4 1006.3 12.6
22/03:00am 24.9 27.5 23.9 94 0.7 WSW 17 19 9 10 1006.4 1006.3 12.6
22/02:30am 24.8 27.4 23.9 95 0.6 WSW 17 20 9 11 1006.6 1006.5 12.6
22/02:00am 24.9 27.6 24.2 96 0.5 W 17 19 9 10 1006.8 1006.7 12.6
22/01:30am 24.9 28.0 24.2 96 0.5 W 15 17 8 9 1007.0 1006.9 12.6
22/01:00am 25.1 27.8 24.1 94 0.7 W 17 20 9 11 1007.2 1007.1 12.6
22/12:30am 25.1 27.8 24.1 94 0.7 W 17 19 9 10 1007.3 1007.2 12.6
22/12:00am 25.2 27.9 24.2 94 0.7 W 17 19 9 10 1007.7 1007.6 12.6
 
Date/Time
CST
Temp
°C
App
Temp
°C
Dew
Point
°C
Rel
Hum
%
Delta-T
°C
Wind Press
QNH
hPa
Press
MSL
hPa
Rain since
9am
mm
Dir  Spd
km/h
Gust
km/h
Spd
kts
Gust
kts
21/11:30pm 25.3 27.7 24.3 94 0.7 W 19 22 10 12 1008.1 1008.0 12.6
21/11:00pm 25.2 28.2 24.7 97 0.3 WNW 17 19 9 10 1008.3 1008.2 12.6
21/10:30pm 25.2 28.2 24.7 97 0.3 WNW 17 20 9 11 1008.4 1008.3 12.6
21/10:00pm 25.0 28.0 24.7 98 0.2 NW 17 22 9 12 1008.1 1008.0 12.4
21/09:30pm 24.7 28.0 24.5 99 0.1 WNW 15 20 8 11 1008.0 1007.9 12.4
21/09:00pm 24.3 27.7 24.1 99 0.1 NW 13 19 7 10 1008.0 1007.9 12.4
21/08:30pm 24.2 28.3 24.0 99 0.1 WNW 9 13 5 7 1007.9 1007.8 12.4
21/08:00pm 24.2 28.3 24.0 99 0.1 WNW 9 9 5 5 1007.8 1007.7 12.4
21/07:30pm 24.2 26.4 24.0 99 0.1 WSW 19 26 10 14 1008.0 1007.9 11.0
21/07:00pm 25.2 27.4 24.2 94 0.7 NW 20 28 11 15 1007.5 1007.4 2.6
21/06:30pm 25.2 27.7 23.8 92 1.0 NNW 17 20 9 11 1006.9 1006.8 1.8
21/06:00pm 25.2 28.6 24.0 93 0.8 NNW 13 19 7 10 1006.7 1006.6 1.8
21/05:30pm 25.2 29.1 24.2 94 0.7 NNW 11 15 6 8 1006.5 1006.4 1.8
21/05:00pm 25.5 28.4 23.9 91 1.1 NW 15 20 8 11 1006.4 1006.3 1.8
21/04:30pm 25.9 29.1 24.3 91 1.1 WNW 15 22 8 12 1006.3 1006.2 1.8
21/04:00pm 24.7 27.4 23.5 93 0.8 WNW 15 19 8 10 1006.4 1006.3 1.6
21/03:30pm 25.1 28.2 23.5 91 1.1 W 13 17 7 9 1006.4 1006.3 0.6

Other Formats:

Comma delimited format used in spreadsheet applications
http://www.bom.gov.au/fwo/IDD60801/IDD60801.94248.axf

JavaScript Object Notation format (JSON) in row-major order
http://www.bom.gov.au/fwo/IDD60801/IDD60801.94248.json